Latest Weather Observations for West Wyalong

IDN60801

Issued at 7:52 pm EST Wednesday 12 August 2020 (issued every 10 minutes, with the page automatically refreshed every 10 minutes)

About weather observations | Map of weather stations | Latest weather observations for NSW | Other Formats
Station Details ID: 050017 Name: WEST WYALONG AIRPORT AWS Lat: -33.94 Lon: 147.20 Height: 257.0 m
Data from the previous 72 hours. | See also: Recent months at West Wyalong
Date/Time
EST
Temp
°C
App
Temp
°C
Dew
Point
°C
Rel
Hum
%
Delta-T
°C
Wind Press
QNH
hPa
Press
MSL
hPa
Rain since
9am
mm
Dir  Spd
km/h
Gust
km/h
Spd
kts
Gust
kts
12/07:30pm 10.8 9.7 9.9 94 0.5 ESE 6 7 3 4 1011.3 1011.6 0.0
12/07:00pm 10.7 10.5 9.1 90 0.8 CALM 0 0 0 0 1011.2 1011.5 0.0
12/06:30pm 11.4 10.9 9.5 88 1.0 E 2 6 1 3 1010.9 1011.1 0.0
12/06:00pm 12.1 10.9 9.7 85 1.2 ENE 6 7 3 4 1010.8 1011.0 0.0
12/05:30pm 13.1 10.6 9.7 80 1.8 NNE 13 15 7 8 1010.6 1010.8 0.0
12/05:00pm 14.2 11.4 10.0 76 2.2 NNE 15 19 8 10 1010.6 1010.8 0.0
12/04:30pm 15.1 12.4 10.3 73 2.5 NE 15 19 8 10 1010.4 1010.6 0.0
12/04:00pm 15.0 12.0 9.4 69 2.9 NNE 15 20 8 11 1010.4 1010.6 0.0
12/03:30pm 15.0 12.6 10.2 73 2.5 NE 13 17 7 9 1010.5 1010.7 0.0
12/03:00pm 15.5 13.0 10.9 74 2.5 NE 15 19 8 10 1010.4 1010.6 0.0
12/02:30pm 16.0 12.9 10.3 69 3.0 NNE 17 24 9 13 1010.7 1010.9 0.0
12/02:00pm 15.0 12.2 10.0 72 2.6 N 15 22 8 12 1011.0 1011.2 0.0
12/01:30pm 14.6 11.2 9.2 70 2.8 N 17 26 9 14 1011.3 1011.6 0.0
12/01:00pm 14.9 12.8 9.7 71 2.7 N 11 17 6 9 1011.6 1011.9 0.0
12/12:30pm 14.1 11.5 9.5 74 2.4 N 13 19 7 10 1012.2 1012.5 0.0
12/12:00pm 13.8 11.2 9.3 74 2.3 N 13 20 7 11 1012.7 1013.0 0.0
12/11:30am 13.9 10.9 9.1 73 2.5 N 15 22 8 12 1013.2 1013.4 0.0
12/11:00am 14.7 12.2 9.7 72 2.6 N 13 20 7 11 1013.6 1013.8 0.0
12/10:30am 13.5 10.6 9.6 77 2.0 N 15 24 8 13 1014.0 1014.2 0.0
12/10:00am 12.2 9.6 9.2 82 1.5 N 13 20 7 11 1014.5 1014.8 0.0
12/09:30am 10.3 7.4 8.2 87 1.0 N 13 19 7 10 1014.6 1014.9 0.0
12/09:00am 9.7 6.8 8.3 91 0.7 NNE 13 17 7 9 1014.9 1015.2 0.2
12/08:30am 9.5 6.5 7.6 88 0.9 NNE 13 17 7 9 1015.0 1015.3 0.0
12/08:00am 9.4 6.9 8.0 91 0.7 NNE 11 13 6 7 1014.9 1015.2 0.0
12/07:30am 8.4 6.1 7.6 95 0.4 NNE 9 13 5 7 1014.9 1015.2 0.0
12/07:00am 7.4 5.6 7.0 97 0.2 NNE 6 7 3 4 1014.9 1015.2 0.0
12/06:30am 7.1 4.7 6.8 98 0.1 NNE 9 11 5 6 1014.7 1015.0 0.0
12/06:00am 6.2 5.2 5.8 97 0.2 CALM 0 0 0 0 1014.7 1015.0 0.0
12/05:30am 6.4 5.4 5.8 96 0.3 CALM 0 0 0 0 1014.6 1014.9 0.0
12/05:00am 6.7 5.9 6.3 97 0.2 CALM 0 0 0 0 1014.4 1014.6 0.0
12/04:30am 6.8 6.0 6.4 97 0.2 CALM 0 0 0 0 1014.5 1014.8 0.0
12/04:00am 6.7 5.8 6.1 96 0.3 CALM 0 0 0 0 1014.5 1014.8 0.0
12/03:30am 6.8 5.9 6.1 95 0.3 CALM 0 0 0 0 1014.7 1015.0 0.0
12/03:00am 6.8 4.2 6.1 95 0.3 ESE 9 9 5 5 1014.8 1015.1 0.0
12/02:30am 7.0 6.1 6.1 94 0.4 CALM 0 0 0 0 1015.4 1015.7 0.0
12/02:00am 7.4 6.6 6.5 94 0.4 CALM 0 0 0 0 1015.7 1016.0 0.0
12/01:30am 7.3 6.5 6.6 95 0.3 CALM 0 0 0 0 1015.9 1016.2 0.0
12/01:00am 7.3 5.1 6.4 94 0.4 NE 7 7 4 4 1016.0 1016.3 0.0
12/12:30am 7.4 5.4 6.2 92 0.6 NE 6 6 3 3 1016.0 1016.3 0.0
12/12:00am 8.0 6.0 7.2 95 0.4 N 7 9 4 5 1016.1 1016.4 0.0
 
Date/Time
EST
Temp
°C
App
Temp
°C
Dew
Point
°C
Rel
Hum
%
Delta-T
°C
Wind Press
QNH
hPa
Press
MSL
hPa
Rain since
9am
mm
Dir  Spd
km/h
Gust
km/h
Spd
kts
Gust
kts
11/11:30pm 7.2 5.3 6.5 95 0.3 ENE 6 7 3 4 1015.8 1016.1 0.0
11/11:00pm 7.0 6.2 6.3 95 0.3 CALM 0 0 0 0 1016.6 1016.9 0.0
11/10:30pm 7.3 6.4 6.2 93 0.5 CALM 0 0 0 0 1017.1 1017.3 0.0
11/10:00pm 7.4 6.5 5.9 90 0.7 CALM 0 0 0 0 1017.3 1017.5 0.0
11/09:30pm 8.6 6.7 7.4 92 0.6 N 7 9 4 5 1017.4 1017.6 0.0
11/09:00pm 8.6 6.7 6.6 87 0.9 NE 6 7 3 4 1017.1 1017.3 0.0
11/08:30pm 9.3 7.3 7.1 86 1.0 NE 7 9 4 5 1017.1 1017.3 0.0
11/08:00pm 10.0 8.1 7.6 85 1.2 NNE 7 9 4 5 1016.6 1016.9 0.0
11/07:30pm 10.5 8.8 7.6 82 1.4 NNE 6 9 3 5 1016.7 1017.0 0.0
11/07:00pm 10.7 8.4 7.6 81 1.5 ENE 9 13 5 7 1016.0 1016.3 0.0
11/06:30pm 10.9 8.7 7.8 81 1.5 ENE 9 11 5 6 1016.0 1016.3 0.0
11/06:00pm 11.2 8.6 7.7 79 1.7 ENE 11 13 6 7 1016.3 1016.6 0.0
11/05:30pm 11.5 9.6 7.6 77 1.9 NNE 7 7 4 4 1016.9 1017.2 0.0
11/05:00pm 12.4 10.5 7.7 73 2.3 NNE 7 9 4 5 1017.2 1017.4 0.0
11/04:30pm 13.1 11.3 7.8 70 2.6 NNE 7 7 4 4 1017.3 1017.5 0.0
11/04:00pm 13.9 11.5 7.2 64 3.3 N 9 13 5 7 1017.7 1017.9 0.0
11/03:30pm 14.4 11.7 7.5 63 3.4 NNW 11 15 6 8 1017.6 1017.8 0.0
11/03:00pm 13.9 11.1 7.0 63 3.4 NNW 11 17 6 9 1017.8 1018.1 0.0
11/02:30pm 14.3 10.2 6.4 59 3.9 N 17 22 9 12 1018.0 1018.3 0.0
11/02:00pm 14.6 10.7 7.2 61 3.7 NNE 17 24 9 13 1017.9 1018.2 0.0
11/01:30pm 13.7 9.8 7.2 65 3.2 NNE 17 24 9 13 1017.9 1018.2 0.0
11/01:00pm 14.0 9.5 6.8 62 3.5 NNE 20 28 11 15 1018.3 1018.6 0.0
11/12:30pm 13.4 8.8 5.8 60 3.6 NNE 19 24 10 13 1019.2 1019.5 0.0
11/12:00pm 12.4 7.8 5.6 63 3.2 NNE 19 26 10 14 1020.1 1020.4 0.0
11/11:30am 12.4 7.8 5.6 63 3.2 NNE 19 24 10 13 1020.6 1020.9 0.0
11/11:00am 12.0 7.3 5.2 63 3.2 NE 19 26 10 14 1020.5 1020.8 0.0
11/10:30am 11.3 7.4 5.2 66 2.8 NE 15 20 8 11 1020.8 1021.1 0.0
11/10:00am 10.6 7.0 5.2 69 2.5 NE 13 17 7 9 1021.2 1021.5 0.0
11/09:30am 9.4 6.6 5.2 75 1.9 E 9 13 5 7 1021.4 1021.7 0.0
11/09:00am 7.6 4.7 4.9 83 1.2 ENE 9 9 5 5 1021.4 1021.7 0.0
11/08:30am 6.3 5.0 4.3 87 0.9 CALM 0 0 0 0 1021.7 1022.0 0.0
11/08:00am 3.9 1.7 3.5 97 0.2 SW 4 7 2 4 1021.6 1021.9 0.0
11/07:30am 1.9 0.1 1.5 97 0.2 CALM 0 0 0 0 1020.8 1021.1 0.0
11/07:00am 0.5 -1.5 -0.1 96 0.2 CALM 0 0 0 0 1020.7 1021.0 0.0
11/06:30am 0.7 -1.3 0.1 96 0.2 CALM 0 0 0 0 1020.6 1020.9 0.0
11/06:00am 0.8 -1.2 0.1 95 0.3 CALM 0 0 0 0 1020.8 1021.1 0.0
11/05:30am 1.6 -1.4 1.0 96 0.2 SSW 6 7 3 4 1020.8 1021.1 0.0
11/05:00am 1.7 -1.4 1.1 96 0.2 SW 7 7 4 4 1020.8 1021.1 0.0
11/04:30am 1.6 -1.4 0.9 95 0.3 S 6 6 3 3 1020.5 1020.8 0.0
11/04:00am 1.9 -1.1 1.0 94 0.3 SE 6 6 3 3 1020.4 1020.7 0.0
11/03:30am 2.5 0.7 1.2 91 0.5 CALM 0 0 0 0 1020.3 1020.6 0.0
11/03:00am 3.9 0.9 2.3 89 0.6 ENE 7 9 4 5 1020.5 1020.8 0.0
11/02:30am 4.3 1.0 2.3 87 0.8 ENE 9 13 5 7 1020.4 1020.7 0.0
11/02:00am 4.6 1.0 3.1 90 0.6 ENE 11 15 6 8 1020.4 1020.7 0.0
11/01:30am 3.4 1.4 2.5 94 0.4 E 2 9 1 5 1021.0 1021.4 0.0
11/01:00am 3.5 0.6 2.6 94 0.4 ESE 7 9 4 5 1021.2 1021.5 0.0
11/12:30am 2.5 -1.3 1.9 96 0.2 E 11 13 6 7 1021.4 1021.7 0.0
11/12:00am 3.1 1.5 2.5 96 0.2 CALM 0 0 0 0 1022.1 1022.4 0.0
 
Date/Time
EST
Temp
°C
App
Temp
°C
Dew
Point
°C
Rel
Hum
%
Delta-T
°C
Wind Press
QNH
hPa
Press
MSL
hPa
Rain since
9am
mm
Dir  Spd
km/h
Gust
km/h
Spd
kts
Gust
kts
10/11:30pm 3.4 1.8 2.7 95 0.3 CALM 0 0 0 0 1021.9 1022.2 0.0
10/11:00pm 3.7 2.2 2.8 94 0.4 CALM 0 0 0 0 1021.8 1022.1 0.0
10/10:30pm 4.2 2.8 3.3 94 0.4 CALM 0 0 0 0 1021.8 1022.1 0.0
10/10:00pm 5.2 2.7 4.0 92 0.5 E 6 7 3 4 1021.8 1022.1 0.0
10/09:30pm 5.5 4.2 4.0 90 0.6 CALM 0 0 0 0 1021.8 1022.1 0.0
10/09:00pm 6.7 4.2 4.0 83 1.2 ESE 6 9 3 5 1021.8 1022.1 0.0
10/08:30pm 7.9 5.3 4.3 78 1.6 ESE 7 9 4 5 1021.5 1021.8 0.0
10/08:00pm 7.4 4.8 4.4 81 1.3 ESE 7 9 4 5 1021.0 1021.4 0.0
10/07:30pm 7.8 5.2 4.4 79 1.5 ESE 7 9 4 5 1020.6 1020.9 0.0
10/07:00pm 8.5 5.2 4.7 77 1.7 ESE 11 13 6 7 1020.5 1020.8 0.0
10/06:30pm 8.9 5.6 4.7 75 1.9 ESE 11 13 6 7 1020.1 1020.4 0.0
10/06:00pm 9.8 7.5 5.6 75 1.9 ESE 7 9 4 5 1020.1 1020.4 0.0
10/05:30pm 11.6 8.8 5.3 65 2.9 ESE 9 13 5 7 1020.0 1020.3 0.0
10/05:00pm 13.3 10.1 5.2 58 3.8 ESE 11 15 6 8 1020.1 1020.4 0.0
10/04:30pm 14.3 10.8 5.4 55 4.3 ESE 13 19 7 10 1019.9 1020.2 0.0
10/04:00pm 14.7 10.9 4.1 49 4.9 ESE 13 20 7 11 1019.8 1020.1 0.0
10/03:30pm 15.0 10.9 6.0 55 4.4 ESE 17 20 9 11 1019.6 1019.9 0.0
10/03:00pm 14.3 10.4 5.4 55 4.2 ESE 15 24 8 13 1019.7 1020.0 0.0
10/02:30pm 14.9 10.7 5.7 54 4.4 SE 17 22 9 12 1019.7 1020.0 0.0
10/02:00pm 14.9 10.5 4.9 51 4.7 E 17 24 9 13 1019.7 1020.0 0.0
10/01:30pm 14.8 9.8 4.8 51 4.7 SE 20 26 11 14 1019.8 1020.1 0.0
10/01:00pm 14.6 9.4 3.7 48 5.0 SE 20 28 11 15 1019.9 1020.2 0.0
10/12:30pm 14.8 10.0 5.6 54 4.4 SE 20 28 11 15 1020.1 1020.4 0.0
10/12:00pm 14.9 10.5 6.7 58 4.0 SE 19 26 10 14 1020.3 1020.6 0.0
10/11:30am 14.4 9.7 6.0 57 4.1 SE 20 26 11 14 1020.4 1020.7 0.0
10/11:00am 13.7 9.1 5.6 58 3.9 SE 19 24 10 13 1020.5 1020.8 0.0
10/10:30am 12.9 7.8 4.3 56 4.0 SSE 20 26 11 14 1020.5 1020.8 0.0
10/10:00am 12.5 8.1 5.0 60 3.5 SSE 17 20 9 11 1020.5 1020.8 0.0
10/09:30am 11.4 7.5 5.3 66 2.8 SSE 15 20 8 11 1020.3 1020.6 0.0
10/09:00am 9.8 5.7 4.4 69 2.4 SSE 15 20 8 11 1020.1 1020.4 2.0
10/08:30am 8.4 3.8 3.8 73 2.0 SSE 17 24 9 13 1020.0 1020.3 2.0
10/08:00am 7.9 3.7 3.6 74 1.9 S 15 20 8 11 1019.7 1020.0 2.0
10/07:30am 6.2 2.7 3.4 82 1.2 SW 11 13 6 7 1019.3 1019.6 2.0
10/07:00am 5.1 2.3 3.0 86 0.9 WSW 7 9 4 5 1018.8 1019.1 2.0
10/06:30am 5.5 2.7 3.0 84 1.0 S 7 11 4 6 1018.5 1018.8 2.0
10/06:00am 6.0 2.5 3.5 84 1.1 SSW 11 19 6 10 1018.1 1018.4 2.0
10/05:30am 6.3 2.1 3.6 83 1.2 S 15 20 8 11 1017.8 1018.1 2.0
10/05:00am 5.9 2.8 3.6 85 1.0 S 9 15 5 8 1017.3 1017.5 2.0
10/04:30am 6.1 2.3 3.8 85 1.0 SSW 13 17 7 9 1017.1 1017.3 2.0
10/04:00am 6.4 3.0 4.1 85 1.0 SSW 11 17 6 9 1016.6 1016.9 2.0
10/03:30am 7.2 3.1 4.3 82 1.3 SSW 15 19 8 10 1016.4 1016.7 2.0
10/03:00am 7.1 2.6 4.2 82 1.3 SSW 17 22 9 12 1016.2 1016.5 2.0
10/02:30am 7.2 2.7 4.3 82 1.3 SSW 17 22 9 12 1016.1 1016.4 2.0
10/02:00am 7.7 2.8 4.3 79 1.5 SSW 19 24 10 13 1015.9 1016.2 2.0
10/01:30am 7.6 3.2 4.7 82 1.3 SSW 17 22 9 12 1015.7 1016.0 2.0
10/01:00am 7.8 3.0 4.9 82 1.3 SSW 19 24 10 13 1015.5 1015.8 2.0
10/12:30am 8.1 3.4 5.2 82 1.3 SSW 19 22 10 12 1015.3 1015.6 2.0
10/12:00am 8.2 4.0 5.8 85 1.1 S 17 24 9 13 1015.4 1015.7 2.0
 
Date/Time
EST
Temp
°C
App
Temp
°C
Dew
Point
°C
Rel
Hum
%
Delta-T
°C
Wind Press
QNH
hPa
Press
MSL
hPa
Rain since
9am
mm
Dir  Spd
km/h
Gust
km/h
Spd
kts
Gust
kts
09/11:30pm 8.0 5.2 6.8 92 0.6 SW 11 15 6 8 1015.5 1015.8 2.0
09/11:00pm 8.3 4.9 7.7 96 0.3 SW 15 19 8 10 1015.5 1015.8 2.0
09/10:30pm 8.3 5.0 7.9 97 0.2 SW 15 19 8 10 1015.4 1015.7 2.0
09/10:00pm 8.5 4.9 8.2 98 0.1 WSW 17 20 9 11 1015.2 1015.5 2.0
09/09:30pm 8.5 5.6 8.1 97 0.2 WSW 13 20 7 11 1015.2 1015.5 2.0
09/09:00pm 8.9 5.0 8.5 97 0.2 WSW 19 24 10 13 1015.2 1015.5 2.0
09/08:30pm 9.1 5.9 8.5 96 0.3 WSW 15 19 8 10 1015.1 1015.4 2.0
09/08:00pm 9.3 6.5 8.7 96 0.3 WSW 13 15 7 8 1014.7 1015.0 2.0

Other formats

Comma delimited format used in spreadsheet applications
http://www.bom.gov.au/fwo/IDN60801/IDN60801.95709.axf

JavaScript Object Notation format (JSON) in row-major order
http://www.bom.gov.au/fwo/IDN60801/IDN60801.95709.json

Data quality

Most of these data are generated automatically and are frequently updated. Quality checks on data are not normally performed. It is possible for incorrect values to appear. Refer to information at About Latest Weather Observations and please check the disclaimer before using these data.